Time;durP1;ratioP1;P1;durP2;ratioP2;P2;SDS_P1;SDS_P2;PMS_P1;PMS_P2;Temp;Humidity;BMP_temperature;BMP_pressure;BME280_temperature;BME280_humidity;BME280_pressure;Samples;Min_cycle;Max_cycle;Signal;HPM_P1;HPM_P2
2023/07/16 00:02:18;;;;;;;12.02;2.50;;;;;;;;;;5042773;28;20050;-82
2023/07/16 00:04:44;;;;;;;8.55;2.85;;;;;;;;;;5055602;28;20476;-82
2023/07/16 00:07:10;;;;;;;8.73;2.80;;;;;;;;;;5065284;28;20109;-82
2023/07/16 00:09:36;;;;;;;11.00;2.90;;;;;;;;;;5062450;28;20076;-83
2023/07/16 00:12:03;;;;;;;10.52;3.17;;;;;;;;;;5067401;28;20072;-81
2023/07/16 00:14:29;;;;;;;9.10;2.67;;;;;;;;;;5067186;28;20421;-81
2023/07/16 00:16:58;;;;;;;8.75;3.10;;;;;;;;;;5049185;28;20094;-83
2023/07/16 00:19:24;;;;;;;7.22;2.80;;;;;;;;;;5057567;28;20561;-83
2023/07/16 00:21:50;;;;;;;9.65;2.65;;;;;;;;;;5060573;28;20134;-85
2023/07/16 00:24:16;;;;;;;7.90;3.10;;;;;;;;;;5070506;28;20036;-82
2023/07/16 00:26:42;;;;;;;12.60;3.10;;;;;;;;;;5058254;28;20044;-81
2023/07/16 00:29:08;;;;;;;9.20;2.85;;;;;;;;;;5075230;28;20040;-81
2023/07/16 00:31:34;;;;;;;10.32;3.13;;;;;;;;;;5057674;28;20466;-81
2023/07/16 00:34:00;;;;;;;11.50;2.70;;;;;;;;;;5070065;28;20049;-80
2023/07/16 00:36:27;;;;;;;11.93;2.72;;;;;;;;;;5056482;28;20090;-81
2023/07/16 00:38:54;;;;;;;9.80;3.15;;;;;;;;;;5070323;28;20044;-81
2023/07/16 00:41:20;;;;;;;9.30;3.00;;;;;;;;;;5061698;28;20036;-81
2023/07/16 00:43:46;;;;;;;9.00;2.63;;;;;;;;;;5071149;28;20059;-82
2023/07/16 00:46:12;;;;;;;13.05;3.35;;;;;;;;;;5069969;28;20396;-82
2023/07/16 00:48:38;;;;;;;6.85;2.80;;;;;;;;;;5074255;28;20440;-80
2023/07/16 00:51:04;;;;;;;9.35;3.22;;;;;;;;;;5065390;28;20036;-80
2023/07/16 00:53:31;;;;;;;7.90;3.20;;;;;;;;;;5050314;28;20044;-80
2023/07/16 00:55:57;;;;;;;10.30;3.08;;;;;;;;;;5059210;28;20171;-80
2023/07/16 00:58:23;;;;;;;12.50;3.33;;;;;;;;;;5064995;28;20075;-81
2023/07/16 01:00:49;;;;;;;10.38;3.33;;;;;;;;;;5066132;28;20080;-81
2023/07/16 01:03:15;;;;;;;11.82;3.55;;;;;;;;;;5058646;28;20374;-81
2023/07/16 01:05:44;;;;;;;9.77;3.40;;;;;;;;;;5067919;28;20056;-81
2023/07/16 01:08:11;;;;;;;9.77;3.15;;;;;;;;;;5068593;28;20048;-81
2023/07/16 01:10:38;;;;;;;15.05;3.22;;;;;;;;;;5069970;28;21401;-81
2023/07/16 01:13:05;;;;;;;9.40;3.05;;;;;;;;;;5052337;28;20037;-83
2023/07/16 01:15:31;;;;;;;10.73;3.00;;;;;;;;;;5066577;28;20090;-83
2023/07/16 01:17:57;;;;;;;9.93;2.70;;;;;;;;;;5064279;28;20479;-82
2023/07/16 01:20:28;;;;;;;9.65;3.10;;;;;;;;;;5069113;28;20090;-82
2023/07/16 01:23:13;;;;;;;10.38;3.22;;;;;;;;;;5053394;28;20071;-82
2023/07/16 01:25:57;;;;;;;10.93;3.05;;;;;;;;;;5062654;28;20707;-82
2023/07/16 01:28:42;;;;;;;12.80;3.05;;;;;;;;;;5063561;28;20132;-82
2023/07/16 01:31:12;;;;;;;13.43;3.13;;;;;;;;;;5072067;28;20110;-82
2023/07/16 01:33:42;;;;;;;13.98;3.50;;;;;;;;;;5060789;28;20035;-82
2023/07/16 01:36:08;;;;;;;12.30;3.20;;;;;;;;;;5075830;28;20044;-83
2023/07/16 01:38:35;;;;;;;8.15;3.10;;;;;;;;;;5071900;28;20033;-82
2023/07/16 01:41:01;;;;;;;14.30;3.85;;;;;;;;;;5063896;28;20110;-83
2023/07/16 01:43:27;;;;;;;10.20;3.20;;;;;;;;;;5063536;28;20044;-83
2023/07/16 01:45:53;;;;;;;15.57;3.47;;;;;;;;;;5072682;28;20465;-82
2023/07/16 01:48:36;;;;;;;8.98;3.13;;;;;;;;;;5060670;28;20060;-82
2023/07/16 01:51:02;;;;;;;11.68;3.10;;;;;;;;;;5058072;28;20037;-81
2023/07/16 01:53:28;;;;;;;9.45;3.13;;;;;;;;;;5064861;28;20055;-83
2023/07/16 01:55:54;;;;;;;10.70;3.50;;;;;;;;;;5070955;28;20403;-83
2023/07/16 01:58:20;;;;;;;13.63;3.40;;;;;;;;;;5077990;28;20033;-83
2023/07/16 02:00:48;;;;;;;12.25;3.42;;;;;;;;;;5069507;28;20032;-83
2023/07/16 02:03:14;;;;;;;12.10;3.60;;;;;;;;;;5058664;28;20070;-83
2023/07/16 02:05:40;;;;;;;15.13;3.72;;;;;;;;;;5079218;28;20051;-83
2023/07/16 02:08:06;;;;;;;11.30;3.42;;;;;;;;;;5074219;28;20048;-82
2023/07/16 02:10:33;;;;;;;10.80;3.47;;;;;;;;;;5077715;28;20119;-83
2023/07/16 02:12:59;;;;;;;8.63;3.28;;;;;;;;;;5079920;28;20758;-83
2023/07/16 02:15:25;;;;;;;11.02;4.00;;;;;;;;;;5062754;28;20558;-82
2023/07/16 02:17:54;;;;;;;13.00;3.75;;;;;;;;;;5053142;28;20119;-83
2023/07/16 02:20:23;;;;;;;10.75;3.65;;;;;;;;;;5061721;28;20048;-83
2023/07/16 02:22:49;;;;;;;8.73;3.60;;;;;;;;;;5070313;28;20668;-83
2023/07/16 02:25:15;;;;;;;11.45;4.15;;;;;;;;;;5077305;28;20134;-83
2023/07/16 02:27:41;;;;;;;8.95;4.43;;;;;;;;;;5059025;28;20052;-81
2023/07/16 02:30:07;;;;;;;12.10;4.85;;;;;;;;;;5031059;28;20661;-82
2023/07/16 02:32:33;;;;;;;11.70;4.50;;;;;;;;;;5056826;28;20052;-83
2023/07/16 02:34:59;;;;;;;13.10;4.13;;;;;;;;;;5065292;28;20066;-80
2023/07/16 02:37:25;;;;;;;12.43;4.28;;;;;;;;;;5059123;28;20052;-82
2023/07/16 02:39:51;;;;;;;9.98;4.03;;;;;;;;;;5069648;28;20040;-83
2023/07/16 02:42:17;;;;;;;9.93;4.03;;;;;;;;;;5046961;28;20032;-82
2023/07/16 02:44:44;;;;;;;11.93;4.45;;;;;;;;;;5050584;28;20041;-83
2023/07/16 02:47:13;;;;;;;12.55;4.53;;;;;;;;;;5060258;28;20056;-83
2023/07/16 02:49:41;;;;;;;12.77;4.32;;;;;;;;;;5071056;28;20049;-83
2023/07/16 02:52:08;;;;;;;12.75;4.28;;;;;;;;;;5062001;28;20079;-83
2023/07/16 02:54:36;;;;;;;11.18;4.38;;;;;;;;;;5066675;28;20119;-82
2023/07/16 02:57:02;;;;;;;12.73;4.13;;;;;;;;;;5068842;28;20563;-82
2023/07/16 02:59:28;;;;;;;11.50;4.10;;;;;;;;;;5070387;28;20595;-82
2023/07/16 03:01:54;;;;;;;12.15;5.00;;;;;;;;;;5062576;28;20389;-81
2023/07/16 03:04:20;;;;;;;10.05;4.20;;;;;;;;;;5060505;28;20496;-83
2023/07/16 03:06:46;;;;;;;11.68;3.88;;;;;;;;;;5051868;28;20044;-83
2023/07/16 03:09:12;;;;;;;11.52;4.68;;;;;;;;;;5043698;28;20072;-83
2023/07/16 03:11:38;;;;;;;14.77;4.00;;;;;;;;;;5079133;28;20048;-82
2023/07/16 03:14:04;;;;;;;13.07;4.28;;;;;;;;;;5072468;28;20043;-83
2023/07/16 03:16:31;;;;;;;12.60;4.35;;;;;;;;;;5057976;28;20446;-83
2023/07/16 03:18:57;;;;;;;9.15;4.30;;;;;;;;;;5062106;28;20810;-82
2023/07/16 03:21:23;;;;;;;14.38;4.53;;;;;;;;;;5055199;28;20051;-82
2023/07/16 03:23:49;;;;;;;12.45;4.10;;;;;;;;;;5063680;28;20488;-83
2023/07/16 03:26:15;;;;;;;10.70;4.88;;;;;;;;;;5065471;28;20038;-83
2023/07/16 03:28:41;;;;;;;12.90;4.80;;;;;;;;;;5074635;28;20597;-84
2023/07/16 03:31:07;;;;;;;13.18;4.22;;;;;;;;;;5061399;28;20041;-84
2023/07/16 03:33:33;;;;;;;18.50;5.10;;;;;;;;;;5057649;28;20049;-82
2023/07/16 03:35:59;;;;;;;10.30;4.60;;;;;;;;;;5061416;28;20449;-84
2023/07/16 03:38:25;;;;;;;12.50;4.18;;;;;;;;;;5054762;28;20083;-82
2023/07/16 03:40:51;;;;;;;11.75;4.65;;;;;;;;;;5050743;28;20084;-83
2023/07/16 03:43:17;;;;;;;12.60;4.43;;;;;;;;;;5074000;28;20051;-83
2023/07/16 03:45:44;;;;;;;12.48;4.60;;;;;;;;;;5042712;28;20442;-81
2023/07/16 03:48:10;;;;;;;13.95;4.70;;;;;;;;;;5060873;28;20048;-81
2023/07/16 03:50:36;;;;;;;14.85;4.80;;;;;;;;;;5053628;28;21055;-83
2023/07/16 03:53:03;;;;;;;13.88;4.88;;;;;;;;;;5063759;28;20060;-82
2023/07/16 03:55:29;;;;;;;10.82;4.38;;;;;;;;;;5057083;28;20070;-82
2023/07/16 03:57:55;;;;;;;13.27;4.93;;;;;;;;;;5063229;28;20524;-82
2023/07/16 04:00:21;;;;;;;13.98;5.13;;;;;;;;;;5071763;28;20539;-82
2023/07/16 04:02:47;;;;;;;15.60;5.07;;;;;;;;;;5049388;28;20048;-82
2023/07/16 04:05:13;;;;;;;12.10;4.93;;;;;;;;;;5039647;28;20055;-82
2023/07/16 04:07:39;;;;;;;11.10;4.90;;;;;;;;;;5060700;28;20044;-83
2023/07/16 04:10:05;;;;;;;10.95;4.68;;;;;;;;;;5051365;28;20052;-83
2023/07/16 04:12:31;;;;;;;15.57;5.13;;;;;;;;;;5049595;28;20083;-82
2023/07/16 04:14:58;;;;;;;13.13;5.50;;;;;;;;;;5059849;28;20080;-82
2023/07/16 04:17:24;;;;;;;14.07;5.82;;;;;;;;;;5072658;28;20612;-82
2023/07/16 04:19:50;;;;;;;13.43;5.43;;;;;;;;;;5065664;28;20408;-83
2023/07/16 04:22:17;;;;;;;15.05;5.22;;;;;;;;;;5080131;28;20050;-83
2023/07/16 04:24:43;;;;;;;17.58;5.60;;;;;;;;;;5050988;28;20102;-83
2023/07/16 04:27:09;;;;;;;14.40;5.68;;;;;;;;;;5073638;28;20052;-83
2023/07/16 04:29:35;;;;;;;14.98;5.43;;;;;;;;;;5059934;28;20134;-83
2023/07/16 04:32:01;;;;;;;13.32;5.57;;;;;;;;;;5058010;28;20071;-82
2023/07/16 04:34:27;;;;;;;13.40;4.97;;;;;;;;;;5075813;28;20078;-80
2023/07/16 04:36:53;;;;;;;12.02;5.53;;;;;;;;;;5048882;28;20115;-82
2023/07/16 04:39:22;;;;;;;15.13;4.82;;;;;;;;;;5066865;28;20050;-83
2023/07/16 04:41:48;;;;;;;11.82;4.97;;;;;;;;;;5055991;28;20052;-81
2023/07/16 04:44:14;;;;;;;12.95;5.28;;;;;;;;;;5069492;28;20032;-83
2023/07/16 04:46:43;;;;;;;12.75;5.30;;;;;;;;;;5060468;28;20426;-83
2023/07/16 04:49:10;;;;;;;20.25;5.78;;;;;;;;;;5047836;28;20044;-82
2023/07/16 04:51:39;;;;;;;14.18;5.22;;;;;;;;;;5052499;28;20053;-82
2023/07/16 04:54:08;;;;;;;12.20;5.32;;;;;;;;;;5074566;28;20518;-83
2023/07/16 04:56:34;;;;;;;16.05;5.60;;;;;;;;;;5045397;28;20040;-83
2023/07/16 04:59:00;;;;;;;15.48;5.32;;;;;;;;;;5050648;28;20082;-84
2023/07/16 05:01:26;;;;;;;14.88;5.35;;;;;;;;;;5062887;28;20142;-84
2023/07/16 05:03:52;;;;;;;13.57;4.93;;;;;;;;;;5073195;28;20055;-83
2023/07/16 05:06:18;;;;;;;10.20;4.65;;;;;;;;;;5060366;28;20087;-82
2023/07/16 05:08:46;;;;;;;16.05;5.53;;;;;;;;;;5066964;28;20478;-81
2023/07/16 05:11:12;;;;;;;16.40;4.88;;;;;;;;;;5052802;28;20436;-84
2023/07/16 05:13:41;;;;;;;15.35;4.90;;;;;;;;;;5061634;28;20079;-83
2023/07/16 05:16:10;;;;;;;12.57;4.93;;;;;;;;;;5058866;28;20062;-82
2023/07/16 05:18:36;;;;;;;16.48;4.90;;;;;;;;;;5053764;28;20040;-83
2023/07/16 05:21:02;;;;;;;14.82;4.57;;;;;;;;;;5068632;28;20044;-83
2023/07/16 05:23:28;;;;;;;13.95;4.90;;;;;;;;;;5047345;28;20070;-82
2023/07/16 05:25:54;;;;;;;11.98;4.78;;;;;;;;;;5043768;28;20029;-83
2023/07/16 05:28:22;;;;;;;13.23;4.50;;;;;;;;;;5060318;28;20055;-83
2023/07/16 05:30:48;;;;;;;13.63;4.95;;;;;;;;;;5072221;28;20534;-83
2023/07/16 05:33:14;;;;;;;12.65;4.65;;;;;;;;;;5057703;28;20057;-82
2023/07/16 05:35:40;;;;;;;16.52;4.72;;;;;;;;;;5070680;28;20496;-83
2023/07/16 05:38:06;;;;;;;12.63;4.47;;;;;;;;;;5056819;28;20116;-84
2023/07/16 05:40:32;;;;;;;12.40;4.85;;;;;;;;;;5067839;28;20119;-83
2023/07/16 05:42:58;;;;;;;10.20;4.25;;;;;;;;;;5053247;28;20563;-83
2023/07/16 05:45:24;;;;;;;17.83;4.88;;;;;;;;;;5068015;28;20050;-82
2023/07/16 05:47:50;;;;;;;9.52;4.40;;;;;;;;;;5053267;28;20357;-83
2023/07/16 05:50:16;;;;;;;12.43;4.22;;;;;;;;;;5058644;28;20131;-83
2023/07/16 05:52:42;;;;;;;9.65;4.13;;;;;;;;;;5048397;28;20024;-82
2023/07/16 05:55:08;;;;;;;9.98;3.95;;;;;;;;;;5046183;28;20046;-83
2023/07/16 05:57:34;;;;;;;12.50;4.57;;;;;;;;;;5050915;28;20481;-83
2023/07/16 06:00:00;;;;;;;14.45;4.47;;;;;;;;;;5051367;28;20052;-82
2023/07/16 06:02:26;;;;;;;15.30;4.65;;;;;;;;;;5059032;28;20497;-83
2023/07/16 06:04:52;;;;;;;13.60;4.55;;;;;;;;;;5065719;28;20048;-82
2023/07/16 06:07:18;;;;;;;10.32;4.28;;;;;;;;;;5070101;28;20051;-82
2023/07/16 06:09:44;;;;;;;10.63;4.40;;;;;;;;;;5068911;28;20024;-82
2023/07/16 06:12:10;;;;;;;13.07;4.10;;;;;;;;;;5070943;28;20075;-82
2023/07/16 06:14:36;;;;;;;11.88;4.65;;;;;;;;;;5063310;28;20048;-82
2023/07/16 06:17:02;;;;;;;13.02;4.25;;;;;;;;;;5057390;28;20052;-83
2023/07/16 06:19:28;;;;;;;12.48;4.47;;;;;;;;;;5065454;28;20040;-82
2023/07/16 06:21:54;;;;;;;14.35;4.63;;;;;;;;;;5041457;28;20032;-83
2023/07/16 06:24:20;;;;;;;12.13;4.10;;;;;;;;;;5058874;28;20081;-82
2023/07/16 06:26:47;;;;;;;9.70;4.53;;;;;;;;;;5054836;28;20036;-82
2023/07/16 06:29:13;;;;;;;13.20;4.45;;;;;;;;;;5058607;28;20098;-83
2023/07/16 06:31:39;;;;;;;11.95;4.35;;;;;;;;;;5056882;28;21030;-82
2023/07/16 06:34:05;;;;;;;12.38;5.22;;;;;;;;;;5058599;28;20143;-82
2023/07/16 06:36:31;;;;;;;13.57;5.03;;;;;;;;;;5048567;28;20037;-82
2023/07/16 06:38:57;;;;;;;9.95;4.40;;;;;;;;;;5055530;28;20064;-84
2023/07/16 06:41:23;;;;;;;17.27;4.75;;;;;;;;;;5049022;28;20052;-81
2023/07/16 06:43:49;;;;;;;9.35;4.50;;;;;;;;;;5046939;28;20041;-83
2023/07/16 06:46:15;;;;;;;12.45;4.88;;;;;;;;;;5055756;28;20039;-83
2023/07/16 06:48:41;;;;;;;10.05;4.43;;;;;;;;;;5059161;28;20416;-84
2023/07/16 06:51:07;;;;;;;12.43;5.07;;;;;;;;;;5068977;28;20082;-82
2023/07/16 06:53:33;;;;;;;9.45;4.57;;;;;;;;;;5051419;28;20404;-81
2023/07/16 06:55:59;;;;;;;12.20;4.97;;;;;;;;;;5054588;28;20526;-81
2023/07/16 06:58:32;;;;;;;16.23;4.90;;;;;;;;;;5061896;28;20048;-82
2023/07/16 07:00:58;;;;;;;17.08;4.97;;;;;;;;;;5053053;28;20892;-81
2023/07/16 07:03:24;;;;;;;11.48;4.78;;;;;;;;;;5070546;28;20076;-82
2023/07/16 07:05:50;;;;;;;9.85;4.70;;;;;;;;;;5062183;28;20385;-81
2023/07/16 07:08:16;;;;;;;11.15;4.90;;;;;;;;;;5064528;28;20040;-82
2023/07/16 07:10:42;;;;;;;9.93;4.63;;;;;;;;;;5062403;28;20036;-84
2023/07/16 07:13:08;;;;;;;12.18;5.30;;;;;;;;;;5059362;28;20447;-81
2023/07/16 07:15:34;;;;;;;10.48;5.05;;;;;;;;;;5070214;28;20059;-82
2023/07/16 07:18:00;;;;;;;11.88;5.05;;;;;;;;;;5057194;28;20045;-81
2023/07/16 07:20:26;;;;;;;14.93;5.38;;;;;;;;;;5061802;28;20530;-82
2023/07/16 07:22:52;;;;;;;11.77;5.13;;;;;;;;;;5044250;28;20383;-81
2023/07/16 07:25:18;;;;;;;11.25;4.68;;;;;;;;;;5046793;28;20067;-82
2023/07/16 07:27:44;;;;;;;12.68;5.00;;;;;;;;;;5052405;28;20143;-81
2023/07/16 07:30:10;;;;;;;11.52;5.10;;;;;;;;;;5059781;28;20569;-81
2023/07/16 07:32:38;;;;;;;11.00;5.45;;;;;;;;;;5042048;28;20040;-81
2023/07/16 07:35:05;;;;;;;12.20;5.05;;;;;;;;;;5063250;28;20818;-81
2023/07/16 07:37:31;;;;;;;9.75;4.78;;;;;;;;;;5041194;28;20168;-82
2023/07/16 07:39:59;;;;;;;12.77;5.43;;;;;;;;;;5050096;28;20132;-82
2023/07/16 07:42:26;;;;;;;9.57;4.70;;;;;;;;;;5061760;28;20048;-84
2023/07/16 07:44:52;;;;;;;11.97;4.83;;;;;;;;;;5055934;28;20048;-81
2023/07/16 07:47:18;;;;;;;8.05;4.30;;;;;;;;;;5055334;28;20089;-84
2023/07/16 07:49:44;;;;;;;11.65;4.60;;;;;;;;;;5055156;28;20053;-84
2023/07/16 07:52:11;;;;;;;12.10;4.68;;;;;;;;;;5063690;28;20484;-83
2023/07/16 07:54:36;;;;;;;14.45;4.78;;;;;;;;;;5065946;28;20056;-81
2023/07/16 07:57:05;;;;;;;12.32;4.63;;;;;;;;;;5057761;28;20056;-83
2023/07/16 07:59:32;;;;;;;9.40;4.50;;;;;;;;;;5070257;28;20538;-79
2023/07/16 08:01:58;;;;;;;10.00;4.57;;;;;;;;;;5056130;28;20037;-77
2023/07/16 08:04:24;;;;;;;11.05;4.53;;;;;;;;;;5062466;28;20043;-79
2023/07/16 08:06:51;;;;;;;11.68;4.40;;;;;;;;;;5051933;28;20396;-79
2023/07/16 08:09:17;;;;;;;12.25;4.22;;;;;;;;;;5043007;28;20112;-78
2023/07/16 08:11:43;;;;;;;10.40;4.35;;;;;;;;;;5060370;28;20052;-79
2023/07/16 08:14:09;;;;;;;8.82;4.50;;;;;;;;;;5058326;28;20070;-79
2023/07/16 08:16:35;;;;;;;11.15;4.97;;;;;;;;;;5052549;28;20442;-78
2023/07/16 08:19:01;;;;;;;10.10;4.65;;;;;;;;;;5041189;28;20044;-75
2023/07/16 08:21:27;;;;;;;13.20;5.13;;;;;;;;;;5061733;28;20044;-78
2023/07/16 08:23:53;;;;;;;12.23;4.70;;;;;;;;;;5038304;28;20074;-78
2023/07/16 08:26:19;;;;;;;11.93;4.68;;;;;;;;;;5061042;28;20072;-79
2023/07/16 08:28:45;;;;;;;11.35;4.50;;;;;;;;;;5063916;28;20040;-76
2023/07/16 08:31:12;;;;;;;9.07;4.60;;;;;;;;;;5070959;28;20492;-78
2023/07/16 08:33:39;;;;;;;12.35;4.95;;;;;;;;;;5045203;28;20040;-79
2023/07/16 08:36:05;;;;;;;13.88;5.55;;;;;;;;;;5059295;28;20060;-77
2023/07/16 08:38:31;;;;;;;12.88;5.20;;;;;;;;;;5069744;28;20110;-78
2023/07/16 08:40:57;;;;;;;13.88;5.25;;;;;;;;;;5066185;28;20036;-78
2023/07/16 08:43:23;;;;;;;11.73;4.80;;;;;;;;;;5063042;28;20037;-78
2023/07/16 08:45:49;;;;;;;8.88;4.25;;;;;;;;;;5062339;28;20071;-78
2023/07/16 08:48:18;;;;;;;10.70;5.05;;;;;;;;;;5067614;28;20568;-79
2023/07/16 08:50:47;;;;;;;10.13;4.68;;;;;;;;;;5062693;28;20038;-78
2023/07/16 08:53:15;;;;;;;12.85;5.13;;;;;;;;;;5064310;28;20055;-80
2023/07/16 08:55:42;;;;;;;8.52;4.18;;;;;;;;;;5060115;28;20488;-79
2023/07/16 08:58:08;;;;;;;11.75;4.60;;;;;;;;;;5058738;28;20032;-79
2023/07/16 09:00:34;;;;;;;12.18;4.63;;;;;;;;;;5059603;28;20431;-77
2023/07/16 09:03:00;;;;;;;14.30;4.80;;;;;;;;;;5067540;28;20073;-78
2023/07/16 09:05:26;;;;;;;8.52;4.70;;;;;;;;;;5061923;28;20061;-78
2023/07/16 09:07:52;;;;;;;13.30;4.82;;;;;;;;;;5069067;28;20044;-79
2023/07/16 09:10:18;;;;;;;11.05;4.47;;;;;;;;;;5061769;28;20051;-79
2023/07/16 09:12:45;;;;;;;13.45;5.07;;;;;;;;;;5059863;28;20074;-79
2023/07/16 09:15:11;;;;;;;12.05;4.55;;;;;;;;;;5045469;28;20029;-80
2023/07/16 09:17:38;;;;;;;11.77;5.15;;;;;;;;;;5072052;28;20044;-79
2023/07/16 09:20:06;;;;;;;10.32;4.53;;;;;;;;;;5056401;28;20106;-79
2023/07/16 09:22:32;;;;;;;;;;;;;;;;;;5060615;28;20097;-78
2023/07/16 09:25:00;;;;;;;10.57;4.40;;;;;;;;;;5022357;28;19928;-78
2023/07/16 09:27:32;;;;;;;10.52;4.50;;;;;;;;;;5063461;28;20044;-78
2023/07/16 09:30:02;;;;;;;10.82;4.68;;;;;;;;;;5071552;28;20049;-78
2023/07/16 09:32:39;;;;;;;14.88;4.60;;;;;;;;;;5064309;28;20040;-79
2023/07/16 09:35:12;;;;;;;12.30;4.75;;;;;;;;;;5054037;28;20439;-79
2023/07/16 09:37:38;;;;;;;10.50;4.07;;;;;;;;;;5061842;28;20373;-77
2023/07/16 09:40:09;;;;;;;10.85;4.50;;;;;;;;;;5069863;28;20556;-76
2023/07/16 09:42:37;;;;;;;12.13;4.65;;;;;;;;;;5062715;28;20048;-78
2023/07/16 09:45:03;;;;;;;;;;;;;;;;;;5067874;28;20045;-80
2023/07/16 09:47:29;;;;;;;10.75;3.92;;;;;;;;;;5065997;28;19931;-79
2023/07/16 09:49:55;;;;;;;9.63;4.75;;;;;;;;;;5064827;28;20041;-79
2023/07/16 09:52:21;;;;;;;8.52;3.95;;;;;;;;;;5068773;28;20138;-78
2023/07/16 09:54:48;;;;;;;11.13;4.13;;;;;;;;;;5067460;28;21997;-77
2023/07/16 09:57:15;;;;;;;12.88;4.40;;;;;;;;;;5068340;28;20055;-78
2023/07/16 09:59:41;;;;;;;10.20;3.90;;;;;;;;;;5070956;28;20602;-78
2023/07/16 10:02:07;;;;;;;8.00;3.88;;;;;;;;;;5064651;28;20102;-77
2023/07/16 10:04:40;;;;;;;8.77;3.95;;;;;;;;;;5074706;28;20144;-77
2023/07/16 10:07:06;;;;;;;7.55;4.00;;;;;;;;;;5070242;28;20665;-79
2023/07/16 10:09:42;;;;;;;12.05;3.95;;;;;;;;;;5070407;28;20049;-77
2023/07/16 10:12:11;;;;;;;11.60;3.90;;;;;;;;;;5068773;28;20050;-79
2023/07/16 10:14:48;;;;;;;8.90;4.05;;;;;;;;;;5074067;28;20142;-77
2023/07/16 10:17:15;;;;;;;7.50;3.88;;;;;;;;;;5071316;28;20082;-78
2023/07/16 10:20:00;;;;;;;12.98;4.30;;;;;;;;;;5048212;28;20127;-78
2023/07/16 10:22:38;;;;;;;9.27;4.40;;;;;;;;;;5048783;28;20046;-79
2023/07/16 10:25:04;;;;;;;;;;;;;;;;;;5070733;28;20045;-77
2023/07/16 10:27:31;;;;;;;7.13;4.22;;;;;;;;;;5072844;28;19969;-77
2023/07/16 10:29:57;;;;;;;10.65;4.70;;;;;;;;;;5072865;28;20036;-77
2023/07/16 10:32:27;;;;;;;9.32;4.40;;;;;;;;;;5071708;28;20050;-78
2023/07/16 10:34:53;;;;;;;13.07;4.40;;;;;;;;;;5049649;28;20044;-77
2023/07/16 10:37:19;;;;;;;9.32;4.45;;;;;;;;;;5067666;28;20051;-77
2023/07/16 10:39:46;;;;;;;10.60;4.35;;;;;;;;;;5072932;28;20487;-78
2023/07/16 10:42:12;;;;;;;8.68;4.07;;;;;;;;;;5068086;28;20040;-77
2023/07/16 10:44:40;;;;;;;10.70;4.55;;;;;;;;;;5069253;28;20045;-78
2023/07/16 10:47:06;;;;;;;12.25;4.20;;;;;;;;;;5063302;28;20075;-80
2023/07/16 10:49:32;;;;;;;10.07;4.03;;;;;;;;;;5076044;28;20317;-80
2023/07/16 10:51:59;;;;;;;7.97;4.00;;;;;;;;;;5068261;28;20648;-79
2023/07/16 10:54:25;;;;;;;9.13;3.85;;;;;;;;;;5061322;28;20105;-80
2023/07/16 10:56:51;;;;;;;9.35;4.18;;;;;;;;;;5060379;28;20052;-77
2023/07/16 10:59:18;;;;;;;9.73;3.88;;;;;;;;;;5067041;28;20483;-76
2023/07/16 11:01:44;;;;;;;9.55;4.20;;;;;;;;;;5063240;28;20041;-78
2023/07/16 11:04:10;;;;;;;8.80;4.13;;;;;;;;;;5060806;28;20064;-79
2023/07/16 11:06:36;;;;;;;7.85;3.97;;;;;;;;;;5050369;28;20049;-79
2023/07/16 11:09:09;;;;;;;9.77;4.07;;;;;;;;;;5053425;28;20036;-79
2023/07/16 11:11:35;;;;;;;10.60;4.00;;;;;;;;;;5063510;28;20080;-77
2023/07/16 11:14:03;;;;;;;12.95;3.90;;;;;;;;;;5042319;28;20132;-79
2023/07/16 11:16:34;;;;;;;7.05;3.90;;;;;;;;;;5068056;28;20076;-80
2023/07/16 11:19:01;;;;;;;9.30;3.65;;;;;;;;;;5049228;28;20081;-80
2023/07/16 11:21:27;;;;;;;8.45;3.88;;;;;;;;;;5049032;28;20048;-80
2023/07/16 11:23:53;;;;;;;8.88;4.00;;;;;;;;;;5060206;28;20036;-79
2023/07/16 11:26:19;;;;;;;10.15;4.43;;;;;;;;;;5059831;28;20544;-80
2023/07/16 11:28:45;;;;;;;7.65;3.58;;;;;;;;;;5063874;28;20146;-78
2023/07/16 11:31:15;;;;;;;7.30;4.07;;;;;;;;;;5068786;28;20119;-81
2023/07/16 11:33:44;;;;;;;8.57;3.78;;;;;;;;;;5059596;28;20080;-79
2023/07/16 11:36:10;;;;;;;8.55;4.00;;;;;;;;;;5060948;28;20593;-79
2023/07/16 11:38:37;;;;;;;11.85;4.05;;;;;;;;;;5063447;28;20048;-78
2023/07/16 11:41:03;;;;;;;9.20;4.30;;;;;;;;;;5060432;28;20037;-79
2023/07/16 11:43:29;;;;;;;9.52;3.80;;;;;;;;;;5061850;28;20542;-79
2023/07/16 11:45:55;;;;;;;10.25;3.80;;;;;;;;;;5063700;28;20071;-80
2023/07/16 11:48:21;;;;;;;9.20;4.07;;;;;;;;;;5064222;28;20454;-80
2023/07/16 11:50:47;;;;;;;8.88;4.03;;;;;;;;;;5063121;28;20641;-79
2023/07/16 11:53:13;;;;;;;8.35;4.00;;;;;;;;;;5061751;28;20039;-78
2023/07/16 11:55:39;;;;;;;8.73;3.90;;;;;;;;;;5057092;28;20073;-79
2023/07/16 11:58:05;;;;;;;11.18;4.10;;;;;;;;;;5064281;28;20040;-80
2023/07/16 12:00:31;;;;;;;11.27;4.78;;;;;;;;;;5067201;28;20135;-76
2023/07/16 12:02:57;;;;;;;10.57;4.53;;;;;;;;;;5067957;28;20044;-80
2023/07/16 12:05:28;;;;;;;14.35;4.72;;;;;;;;;;5063342;28;20500;-78
2023/07/16 12:07:54;;;;;;;8.82;4.70;;;;;;;;;;5069667;28;20500;-78
2023/07/16 12:10:21;;;;;;;10.63;4.40;;;;;;;;;;5072408;28;20079;-81
2023/07/16 12:12:46;;;;;;;8.68;4.60;;;;;;;;;;5065707;28;20094;-79
2023/07/16 12:15:13;;;;;;;12.43;4.60;;;;;;;;;;5059267;28;20035;-80
2023/07/16 12:17:38;;;;;;;10.60;4.68;;;;;;;;;;5061808;28;20043;-81
2023/07/16 12:20:05;;;;;;;10.05;4.82;;;;;;;;;;5062027;28;20105;-80
2023/07/16 12:22:31;;;;;;;10.05;4.50;;;;;;;;;;5064837;28;20045;-76
2023/07/16 12:24:57;;;;;;;10.63;4.40;;;;;;;;;;5062902;28;20543;-77
2023/07/16 12:27:23;;;;;;;9.38;4.18;;;;;;;;;;5044082;28;20044;-78
2023/07/16 12:29:49;;;;;;;8.73;3.90;;;;;;;;;;5061383;28;20524;-80
2023/07/16 12:32:15;;;;;;;9.50;3.95;;;;;;;;;;5052121;28;20048;-77
2023/07/16 12:34:41;;;;;;;10.15;4.55;;;;;;;;;;5057985;28;20129;-79
2023/07/16 12:37:07;;;;;;;8.35;4.10;;;;;;;;;;5060959;28;20052;-79
2023/07/16 12:39:33;;;;;;;12.55;4.20;;;;;;;;;;5067495;28;20040;-79
2023/07/16 12:41:59;;;;;;;7.78;4.10;;;;;;;;;;5058523;28;20037;-77
2023/07/16 12:44:25;;;;;;;8.88;4.40;;;;;;;;;;5065636;28;20044;-80
2023/07/16 12:46:51;;;;;;;10.52;4.35;;;;;;;;;;5067852;28;20057;-78
2023/07/16 12:49:18;;;;;;;8.57;4.28;;;;;;;;;;5068683;28;20053;-80
2023/07/16 12:51:44;;;;;;;10.32;4.80;;;;;;;;;;5068741;28;20054;-80
2023/07/16 12:54:10;;;;;;;9.13;4.38;;;;;;;;;;5066061;28;20052;-79
2023/07/16 12:56:36;;;;;;;7.72;4.63;;;;;;;;;;5065604;28;20044;-80
2023/07/16 12:59:03;;;;;;;11.52;4.63;;;;;;;;;;5068361;28;20108;-77
2023/07/16 13:01:30;;;;;;;8.45;4.10;;;;;;;;;;5069189;28;20044;-78
2023/07/16 13:03:56;;;;;;;9.35;4.47;;;;;;;;;;5063348;28;20087;-78
2023/07/16 13:06:22;;;;;;;9.88;3.95;;;;;;;;;;5067377;28;20048;-81
2023/07/16 13:08:48;;;;;;;10.15;4.63;;;;;;;;;;5067129;28;20083;-79
2023/07/16 13:11:14;;;;;;;11.25;4.82;;;;;;;;;;5064717;28;20114;-75
2023/07/16 13:13:42;;;;;;;8.45;4.18;;;;;;;;;;5065254;28;20066;-78
2023/07/16 13:16:08;;;;;;;7.93;4.50;;;;;;;;;;5069122;28;20048;-77
2023/07/16 13:18:34;;;;;;;12.35;4.75;;;;;;;;;;5062981;28;20054;-77
2023/07/16 13:21:00;;;;;;;10.30;5.78;;;;;;;;;;5058673;28;20426;-80
2023/07/16 13:23:25;;;;;;;9.75;4.43;;;;;;;;;;5068806;28;20479;-77
2023/07/16 13:25:52;;;;;;;7.47;4.60;;;;;;;;;;5064166;28;20044;-79
2023/07/16 13:28:18;;;;;;;8.40;4.50;;;;;;;;;;5065988;28;20561;-77
2023/07/16 13:30:44;;;;;;;12.20;4.75;;;;;;;;;;5070694;28;20052;-80
2023/07/16 13:33:10;;;;;;;9.13;4.75;;;;;;;;;;5064084;28;20403;-76
2023/07/16 13:35:36;;;;;;;10.60;5.00;;;;;;;;;;5060820;28;20036;-80
2023/07/16 13:38:02;;;;;;;11.13;5.00;;;;;;;;;;5065096;28;20062;-81
2023/07/16 13:40:28;;;;;;;8.05;4.40;;;;;;;;;;5082384;28;20040;-80
2023/07/16 13:42:54;;;;;;;8.20;4.50;;;;;;;;;;5083102;28;20481;-75
2023/07/16 13:45:20;;;;;;;8.98;4.03;;;;;;;;;;5083116;28;20040;-79
2023/07/16 13:47:46;;;;;;;6.70;3.55;;;;;;;;;;5052007;28;20118;-78
2023/07/16 13:50:12;;;;;;;8.50;3.60;;;;;;;;;;5064192;28;20401;-79
2023/07/16 13:52:38;;;;;;;7.05;3.10;;;;;;;;;;5073476;28;20503;-80
2023/07/16 13:55:05;;;;;;;6.25;3.05;;;;;;;;;;5083275;28;20145;-78
2023/07/16 13:57:31;;;;;;;8.75;3.30;;;;;;;;;;5065141;28;20059;-79
2023/07/16 13:59:57;;;;;;;8.15;3.10;;;;;;;;;;5083557;28;20457;-78
2023/07/16 14:02:23;;;;;;;5.28;2.50;;;;;;;;;;5082401;28;20078;-78
2023/07/16 14:04:49;;;;;;;7.32;3.08;;;;;;;;;;5085000;28;20080;-78
2023/07/16 14:07:15;;;;;;;9.30;2.70;;;;;;;;;;5077995;28;20070;-81
2023/07/16 14:09:41;;;;;;;6.60;2.53;;;;;;;;;;5084505;28;20039;-77
2023/07/16 14:12:07;;;;;;;7.20;3.00;;;;;;;;;;5083785;28;20048;-81
2023/07/16 14:14:33;;;;;;;9.57;2.80;;;;;;;;;;5077677;28;20041;-79
2023/07/16 14:16:59;;;;;;;6.97;2.70;;;;;;;;;;5071187;28;20048;-76
2023/07/16 14:19:25;;;;;;;8.32;2.60;;;;;;;;;;5083028;28;20491;-82
2023/07/16 14:21:51;;;;;;;8.50;2.70;;;;;;;;;;5084196;28;20955;-81
2023/07/16 14:24:17;;;;;;;8.07;2.92;;;;;;;;;;5073105;28;20076;-81
2023/07/16 14:26:43;;;;;;;7.15;2.80;;;;;;;;;;5065984;28;20119;-76
2023/07/16 14:29:11;;;;;;;7.75;2.53;;;;;;;;;;5064574;28;20487;-80
2023/07/16 14:31:37;;;;;;;9.57;2.60;;;;;;;;;;5084849;28;20051;-79
2023/07/16 14:34:03;;;;;;;7.88;2.63;;;;;;;;;;5082484;28;20651;-81